Time;durP1;ratioP1;P1;durP2;ratioP2;P2;SDS_P1;SDS_P2;PMS_P1;PMS_P2;Temp;Humidity;BMP_temperature;BMP_pressure;BME280_temperature;BME280_humidity;BME280_pressure;Samples;Min_cycle;Max_cycle;Signal;HPM_P1;HPM_P2
2022/09/25 00:00:34;;;;;;;12.75;11.55;;;;;;;14.38;93.92;95244.84;5035656;28;20202;-81
2022/09/25 00:03:02;;;;;;;12.18;11.07;;;;;;;14.37;93.47;95239.84;5036675;28;20202;-79
2022/09/25 00:05:28;;;;;;;13.65;12.00;;;;;;;14.18;93.64;95244.94;5035609;28;20237;-81
2022/09/25 00:07:55;;;;;;;13.27;11.98;;;;;;;14.12;93.86;95235.41;5035933;28;20225;-80
2022/09/25 00:10:24;;;;;;;12.48;11.18;;;;;;;14.15;94.32;95242.75;5034758;28;20202;-80
2022/09/25 00:12:50;;;;;;;11.95;10.75;;;;;;;14.21;94.65;95245.53;5036734;28;20202;-80
2022/09/25 00:15:17;;;;;;;12.23;10.98;;;;;;;14.29;94.42;95246.06;5036061;28;20226;-80
2022/09/25 00:17:43;;;;;;;11.50;10.47;;;;;;;14.32;93.92;95239.69;5036164;28;20649;-79
2022/09/25 00:20:10;;;;;;;14.10;11.85;;;;;;;14.32;92.66;95231.91;5036177;28;20253;-81
2022/09/25 00:22:37;;;;;;;12.80;11.67;;;;;;;14.16;93.75;95231.41;5036277;28;20270;-80
2022/09/25 00:25:04;;;;;;;12.47;11.37;;;;;;;14.20;93.74;95231.78;5036272;28;20202;-81
2022/09/25 00:27:31;;;;;;;12.57;11.37;;;;;;;14.12;93.59;95224.25;5036616;28;20209;-80
2022/09/25 00:29:59;;;;;;;12.40;11.20;;;;;;;14.16;93.93;95225.44;5035898;28;20273;-79
2022/09/25 00:32:28;;;;;;;11.30;10.30;;;;;;;14.14;93.33;95227.44;5035873;28;20248;-80
2022/09/25 00:34:55;;;;;;;12.00;10.98;;;;;;;14.10;92.75;95223.66;5036513;28;20198;-80
2022/09/25 00:37:22;;;;;;;11.15;10.15;;;;;;;14.09;92.97;95222.84;5036525;28;20206;-80
2022/09/25 00:39:52;;;;;;;12.37;11.07;;;;;;;14.11;92.01;95214.88;5036111;28;20767;-81
2022/09/25 00:42:22;;;;;;;10.75;9.75;;;;;;;14.06;92.17;95215.50;5035997;28;20271;-80
2022/09/25 00:44:56;;;;;;;10.35;9.45;;;;;;;14.09;91.94;95217.69;5036292;28;20213;-79
2022/09/25 00:47:28;;;;;;;10.02;9.13;;;;;;;14.09;91.49;95209.91;5035290;28;20271;-81
2022/09/25 00:49:57;;;;;;;10.02;9.20;;;;;;;14.07;91.67;95205.94;5035823;28;20237;-80
2022/09/25 00:52:27;;;;;;;9.73;8.93;;;;;;;14.00;91.19;95206.00;5035536;28;20301;-80
2022/09/25 00:55:00;;;;;;;11.45;10.45;;;;;;;13.78;91.43;95200.31;5035008;28;20210;-81
2022/09/25 00:57:30;;;;;;;9.68;8.88;;;;;;;13.76;92.78;95204.91;5035893;28;20259;-79
2022/09/25 01:00:01;;;;;;;10.05;9.18;;;;;;;13.82;92.68;95200.72;5035206;28;20222;-79
2022/09/25 01:02:30;;;;;;;10.10;9.20;;;;;;;13.80;92.18;95206.09;5035649;28;20568;-80
2022/09/25 01:05:02;;;;;;;9.40;8.60;;;;;;;13.83;92.51;95204.88;5035126;28;20860;-80
2022/09/25 01:07:31;;;;;;;9.23;8.37;;;;;;;13.84;91.80;95203.88;5036083;28;20197;-79
2022/09/25 01:10:01;;;;;;;9.53;8.73;;;;;;;13.86;91.63;95208.81;5035363;28;20649;-79
2022/09/25 01:12:27;;;;;;;13.50;9.25;;;;;;;13.81;91.33;95204.28;5035226;28;20206;-80
2022/09/25 01:14:55;;;;;;;9.60;8.80;;;;;;;13.79;91.42;95195.94;5033903;28;20642;-80
2022/09/25 01:17:27;;;;;;;10.15;8.93;;;;;;;13.77;91.59;95200.53;5035968;28;20305;-79
2022/09/25 01:20:09;;;;;;;9.38;8.45;;;;;;;13.72;91.53;95206.31;5034721;28;20229;-80
2022/09/25 01:23:03;;;;;;;8.93;8.18;;;;;;;13.71;91.03;95206.50;5039478;28;20288;-79
2022/09/25 01:25:41;;;;;;;8.70;7.90;;;;;;;13.70;91.62;95197.16;5039064;28;20427;-80
2022/09/25 01:28:26;;;;;;;8.63;7.63;;;;;;;13.76;91.00;95197.13;5039241;28;20226;-79
2022/09/25 01:31:00;;;;;;;8.23;7.43;;;;;;;13.75;90.92;95200.72;5039379;28;20256;-80
2022/09/25 01:33:34;;;;;;;8.17;7.47;;;;;;;13.71;90.89;95194.38;5038985;28;20232;-79
2022/09/25 01:36:06;;;;;;;8.25;7.57;;;;;;;13.66;90.87;95193.41;5038846;28;20239;-80
2022/09/25 01:38:38;;;;;;;9.20;8.30;;;;;;;13.60;90.58;95182.06;5039586;28;20221;-79
2022/09/25 01:41:15;;;;;;;8.37;7.63;;;;;;;13.65;90.75;95191.81;5039285;28;20206;-80
2022/09/25 01:43:46;;;;;;;8.13;7.43;;;;;;;13.58;90.98;95181.50;5038896;28;20644;-80
2022/09/25 01:46:17;;;;;;;7.97;7.27;;;;;;;13.55;91.29;95186.28;5039147;28;20312;-81
2022/09/25 01:48:47;;;;;;;7.47;6.87;;;;;;;13.57;91.22;95187.66;5039295;28;20254;-80
2022/09/25 01:51:18;;;;;;;7.23;6.63;;;;;;;13.57;90.64;95186.84;5038878;28;20270;-81
2022/09/25 01:53:48;;;;;;;7.77;7.03;;;;;;;13.56;91.27;95185.28;5038941;28;20198;-80
2022/09/25 01:56:25;;;;;;;6.67;6.07;;;;;;;13.61;91.87;95181.09;5038757;28;20652;-80
2022/09/25 01:58:58;;;;;;;6.20;5.70;;;;;;;13.69;92.34;95182.63;5038559;28;20236;-78
2022/09/25 02:01:31;;;;;;;6.67;5.97;;;;;;;13.68;92.45;95181.03;5038627;28;20210;-80
2022/09/25 02:04:02;;;;;;;6.78;5.45;;;;;;;13.70;92.45;95181.63;5038953;28;20202;-80
2022/09/25 02:06:31;;;;;;;6.20;5.57;;;;;;;13.67;92.59;95174.28;5038829;28;20229;-79
2022/09/25 02:09:03;;;;;;;5.83;5.33;;;;;;;13.73;92.12;95183.81;5036901;28;20222;-80
2022/09/25 02:11:33;;;;;;;5.70;5.20;;;;;;;13.74;91.87;95186.19;5034978;28;20205;-80
2022/09/25 02:14:06;;;;;;;5.47;5.07;;;;;;;13.66;92.16;95183.81;5035053;28;20248;-79
2022/09/25 02:16:37;;;;;;;5.97;5.47;;;;;;;13.69;91.82;95186.00;5035111;28;20226;-79
2022/09/25 02:21:57;;;;;;;5.50;5.10;;;;;;;13.68;91.63;95189.59;5034478;28;20205;-80
2022/09/25 02:24:31;;;;;;;5.77;5.30;;;;;;;13.66;91.75;95191.59;5034656;28;20202;-80
2022/09/25 02:26:58;;;;;;;5.83;5.33;;;;;;;13.65;91.36;95197.00;5034664;28;20225;-80
2022/09/25 02:29:24;;;;;;;6.03;5.53;;;;;;;13.62;91.38;95197.41;5035015;28;20230;-79
2022/09/25 02:31:58;;;;;;;8.20;5.50;;;;;;;13.60;91.52;95200.19;5034208;28;20661;-79
2022/09/25 02:34:25;;;;;;;5.70;5.30;;;;;;;13.55;90.39;95201.78;5034164;28;20583;-79
2022/09/25 02:36:51;;;;;;;6.53;6.03;;;;;;;13.47;91.04;95203.59;5033449;28;20724;-80
2022/09/25 02:39:22;;;;;;;6.43;5.82;;;;;;;13.49;91.28;95204.19;5034922;28;20651;-80
2022/09/25 02:42:06;;;;;;;6.20;5.70;;;;;;;13.51;91.21;95203.19;5034122;28;20202;-79
2022/09/25 02:44:43;;;;;;;5.93;5.43;;;;;;;13.57;90.86;95194.63;5034179;28;20209;-79
2022/09/25 02:47:21;;;;;;;6.97;6.37;;;;;;;13.45;91.74;95192.69;5033216;28;20271;-79
2022/09/25 02:49:54;;;;;;;6.37;5.87;;;;;;;13.48;91.54;95192.25;5033516;28;20218;-80
2022/09/25 02:52:27;;;;;;;6.60;5.90;;;;;;;13.46;91.85;95188.31;5033420;28;20209;-81
2022/09/25 02:55:00;;;;;;;6.30;5.70;;;;;;;13.49;91.92;95180.91;5033026;28;20190;-80
2022/09/25 02:57:37;;;;;;;5.57;5.17;;;;;;;13.58;91.91;95170.34;5033423;28;20228;-79
2022/09/25 03:00:07;;;;;;;6.00;5.50;;;;;;;13.66;91.44;95181.25;5033448;28;20222;-79
2022/09/25 03:02:37;;;;;;;5.97;5.47;;;;;;;13.71;91.48;95189.19;5033553;28;20589;-79
2022/09/25 03:05:06;;;;;;;5.83;5.37;;;;;;;13.75;90.46;95185.19;5032829;28;20202;-78
2022/09/25 03:08:36;;;;;;;5.63;5.13;;;;;;;13.74;89.56;95183.59;5033642;28;20642;-79
2022/09/25 03:10:19;;;;;;;6.03;5.53;;;;;;;13.54;89.34;95171.75;5032921;28;20206;-79
2022/09/25 03:12:45;;;;;;;5.80;5.40;;;;;;;13.45;90.05;95171.19;5033782;28;20206;-78
2022/09/25 03:15:12;;;;;;;6.20;5.70;;;;;;;13.45;90.45;95166.03;5033611;28;20590;-80
2022/09/25 03:17:40;;;;;;;6.03;5.53;;;;;;;13.39;90.31;95165.03;5033658;28;20206;-80
2022/09/25 03:20:08;;;;;;;6.10;5.50;;;;;;;13.29;91.19;95156.09;5033531;28;20694;-79
2022/09/25 03:22:35;;;;;;;6.93;6.33;;;;;;;13.17;91.72;95152.56;5034047;28;20205;-78
2022/09/25 03:25:02;;;;;;;6.57;6.03;;;;;;;13.16;92.17;95156.16;5033549;28;20202;-80
2022/09/25 03:27:28;;;;;;;5.50;5.10;;;;;;;13.19;92.48;95156.53;5033742;28;20723;-78
2022/09/25 03:29:55;;;;;;;5.73;5.23;;;;;;;13.22;91.90;95150.19;5053841;22;20884;-87
2022/09/25 03:32:22;;;;;;;6.37;5.87;;;;;;;13.18;92.43;95149.78;5052622;28;20201;-89
2022/09/25 03:34:49;;;;;;;6.10;5.60;;;;;;;13.31;91.97;95160.06;5052926;28;20450;-86
2022/09/25 03:37:16;;;;;;;7.20;5.83;;;;;;;13.35;91.65;95165.63;5051979;28;20226;-86
2022/09/25 03:39:42;;;;;;;6.50;5.90;;;;;;;13.38;91.75;95158.28;5052287;28;20905;-86
2022/09/25 03:42:09;;;;;;;32.03;8.30;;;;;;;13.38;91.60;95160.06;5052345;28;20201;-86
2022/09/25 03:44:35;;;;;;;7.17;6.50;;;;;;;13.34;91.76;95153.72;5052083;28;20742;-87
2022/09/25 03:47:02;;;;;;;9.67;6.70;;;;;;;13.35;90.98;95153.50;5051742;28;20233;-88
2022/09/25 03:49:28;;;;;;;7.20;6.60;;;;;;;13.36;90.50;95141.38;5052350;28;20228;-88
2022/09/25 03:51:56;;;;;;;7.37;6.67;;;;;;;13.30;90.35;95148.16;5052651;28;20202;-87
2022/09/25 03:54:22;;;;;;;7.43;6.83;;;;;;;13.21;90.68;95148.59;5052497;28;20624;-87
2022/09/25 03:56:49;;;;;;;9.23;6.37;;;;;;;13.21;90.78;95151.16;5052439;28;20233;-87
2022/09/25 03:59:15;;;;;;;7.30;6.70;;;;;;;13.20;90.95;95150.38;5052317;28;20908;-89
2022/09/25 04:01:42;;;;;;;6.47;5.83;;;;;;;13.26;90.92;95159.13;5052345;28;20201;-87
2022/09/25 04:04:08;;;;;;;6.77;6.17;;;;;;;13.26;91.22;95148.78;5052184;28;20676;-87
2022/09/25 04:06:35;;;;;;;6.33;5.83;;;;;;;13.31;91.12;95138.59;5051377;28;20237;-88
2022/09/25 04:09:02;;;;;;;7.00;6.40;;;;;;;13.33;91.33;95146.94;5052053;28;20233;-87
2022/09/25 04:11:30;;;;;;;6.85;6.25;;;;;;;13.39;91.14;95138.38;5051867;28;20279;-88
2022/09/25 04:13:56;;;;;;;6.30;5.80;;;;;;;13.40;90.69;95140.78;5052045;28;20208;-87
2022/09/25 04:16:23;;;;;;;6.70;6.10;;;;;;;13.36;90.92;95136.19;5051766;28;20256;-86
2022/09/25 04:18:50;;;;;;;6.50;5.90;;;;;;;13.36;90.80;95138.78;5051788;28;20221;-87
2022/09/25 04:21:16;;;;;;;6.53;5.93;;;;;;;13.37;90.73;95142.97;5051735;28;20772;-87
2022/09/25 04:24:46;;;;;;;6.20;5.70;;;;;;;13.34;90.95;95144.16;5038132;28;20206;-88
2022/09/25 04:26:35;;;;;;;6.30;5.80;;;;;;;13.40;90.69;95138.19;5031471;28;20701;-86
2022/09/25 04:29:02;;;;;;;5.93;5.43;;;;;;;13.40;90.69;95138.19;5032241;28;20692;-87
2022/09/25 04:31:29;;;;;;;6.67;6.13;;;;;;;13.39;90.31;95140.97;5031872;28;20230;-87
2022/09/25 04:33:54;;;;;;;6.13;5.63;;;;;;;13.31;90.55;95141.97;5032001;28;20236;-88
2022/09/25 04:36:21;;;;;;;6.37;5.87;;;;;;;13.35;90.58;95144.97;5031719;28;20229;-88
2022/09/25 04:38:47;;;;;;;6.60;6.05;;;;;;;13.33;90.44;95146.94;5032033;28;20198;-88
2022/09/25 04:41:15;;;;;;;6.37;5.87;;;;;;;13.24;91.08;95143.81;5032157;28;20262;-86
2022/09/25 04:43:42;;;;;;;6.37;5.77;;;;;;;13.27;91.12;95153.75;5032711;28;20209;-88
2022/09/25 04:46:11;;;;;;;5.83;5.33;;;;;;;13.33;90.38;95149.53;5031810;28;20779;-88
2022/09/25 04:48:38;;;;;;;5.47;5.07;;;;;;;13.36;89.95;95146.53;5031180;28;20210;-88
2022/09/25 04:51:05;;;;;;;6.30;5.80;;;;;;;13.33;89.61;95141.78;5031330;28;20733;-88
2022/09/25 04:53:33;;;;;;;5.77;5.33;;;;;;;13.37;89.21;95143.75;5031897;28;20205;-88
2022/09/25 04:56:01;;;;;;;6.30;5.80;;;;;;;13.27;90.01;95148.59;5033002;28;20237;-87
2022/09/25 04:58:27;;;;;;;6.13;5.63;;;;;;;13.29;90.29;95145.75;5036210;28;20329;-87
2022/09/25 05:00:55;;;;;;;6.33;5.83;;;;;;;13.29;90.61;95145.75;5035632;28;20233;-87
2022/09/25 05:03:21;;;;;;;6.20;5.70;;;;;;;13.22;90.91;95148.38;5039484;28;20201;-90
2022/09/25 05:05:49;;;;;;;5.87;5.37;;;;;;;13.25;90.92;95149.78;5055073;28;20607;-87
2022/09/25 05:08:15;;;;;;;5.50;5.10;;;;;;;13.26;91.09;95151.38;5055673;28;20201;-87
2022/09/25 05:10:43;;;;;;;5.73;5.27;;;;;;;13.24;91.22;95150.78;5055032;28;20663;-87
2022/09/25 05:13:10;;;;;;;5.77;5.27;;;;;;;13.24;91.01;95145.59;5054878;28;20216;-88
2022/09/25 05:15:37;;;;;;;5.97;5.47;;;;;;;13.24;91.55;95151.56;5054961;28;20240;-88
2022/09/25 05:18:07;;;;;;;6.40;5.87;;;;;;;13.28;91.30;95155.31;5055915;28;20205;-88
2022/09/25 05:20:35;;;;;;;6.40;5.90;;;;;;;13.33;91.15;95154.69;5055042;28;20716;-89
2022/09/25 05:23:03;;;;;;;5.50;5.10;;;;;;;13.35;90.97;95150.91;5047470;28;20198;-89
2022/09/25 05:25:30;;;;;;;6.17;5.67;;;;;;;13.25;92.04;95142.81;5035005;28;20633;-87
2022/09/25 05:27:58;;;;;;;6.83;6.23;;;;;;;13.05;94.33;95148.00;5035575;28;20404;-88
2022/09/25 05:30:25;;;;;;;6.33;5.73;;;;;;;13.11;93.89;95147.16;5034731;28;20261;-87
2022/09/25 05:32:52;;;;;;;6.10;5.60;;;;;;;13.17;93.95;95147.41;5035510;28;20206;-87
2022/09/25 05:35:22;;;;;;;6.30;5.80;;;;;;;13.25;93.22;95149.78;5035101;28;20229;-89
2022/09/25 05:37:49;;;;;;;6.30;5.80;;;;;;;13.32;92.74;95153.13;5034658;28;20292;-87
2022/09/25 05:40:17;;;;;;;5.70;5.30;;;;;;;13.40;92.24;95143.34;5034258;28;20276;-88
2022/09/25 05:42:44;;;;;;;5.80;5.33;;;;;;;13.45;92.27;95156.47;5034807;28;20847;-88
2022/09/25 05:45:11;;;;;;;5.30;4.90;;;;;;;13.49;91.88;95151.66;5034494;28;20202;-87
2022/09/25 05:47:38;;;;;;;5.67;5.17;;;;;;;13.54;91.78;95151.84;5034581;28;20209;-87
2022/09/25 05:50:05;;;;;;;5.53;5.13;;;;;;;13.53;91.69;95158.03;5034411;28;20218;-88
2022/09/25 05:52:32;;;;;;;7.60;5.77;;;;;;;13.54;91.80;95156.22;5034264;28;20206;-88
2022/09/25 05:54:59;;;;;;;9.00;5.97;;;;;;;13.56;92.16;95149.06;5033932;28;20217;-89
2022/09/25 05:57:27;;;;;;;11.90;6.63;;;;;;;13.50;93.92;95153.25;5034715;28;20210;-87
2022/09/25 05:59:53;;;;;;;7.80;6.17;;;;;;;13.54;94.26;95159.59;5034369;28;20237;-88
2022/09/25 06:02:20;;;;;;;5.90;5.30;;;;;;;13.51;94.32;95154.03;5033963;28;20579;-88
2022/09/25 06:04:46;;;;;;;8.03;5.23;;;;;;;13.54;93.87;95153.63;5049069;28;20201;-90
2022/09/25 06:07:12;;;;;;;5.22;4.82;;;;;;;13.56;94.00;95151.66;5053443;28;20604;-89
2022/09/25 06:09:40;;;;;;;17.83;15.90;;;;;;;13.65;93.18;95153.00;5053674;28;20218;-88
2022/09/25 06:12:07;;;;;;;13.67;12.10;;;;;;;13.70;92.92;95150.59;5054693;28;20834;-87
2022/09/25 06:14:34;;;;;;;10.57;9.57;;;;;;;13.73;91.65;95150.19;5054404;28;20202;-88
2022/09/25 06:17:00;;;;;;;6.77;6.17;;;;;;;13.75;91.59;95164.50;5053476;28;20229;-89
2022/09/25 06:19:28;;;;;;;5.20;4.80;;;;;;;13.72;91.29;95162.31;5054784;28;20232;-88
2022/09/25 06:21:56;;;;;;;5.27;4.70;;;;;;;13.73;90.89;95152.75;5054466;28;20201;-89
2022/09/25 06:24:22;;;;;;;4.60;4.00;;;;;;;13.78;90.50;95153.75;5034398;28;20244;-88
2022/09/25 06:26:50;;;;;;;4.28;3.95;;;;;;;13.77;90.81;95159.91;5033733;28;20280;-87
2022/09/25 06:29:17;;;;;;;5.13;4.60;;;;;;;13.80;91.56;95154.31;5033786;28;20209;-87
2022/09/25 06:31:43;;;;;;;4.53;4.13;;;;;;;13.83;91.22;95153.13;5033977;28;20202;-89
2022/09/25 06:34:10;;;;;;;4.45;4.05;;;;;;;13.88;90.42;95145.50;5033833;28;20202;-88
2022/09/25 06:36:37;;;;;;;4.57;4.18;;;;;;;13.87;90.70;95146.50;5035119;28;20264;-88
2022/09/25 06:39:04;;;;;;;4.88;4.47;;;;;;;13.88;90.69;95147.31;5035167;28;20209;-87
2022/09/25 06:41:31;;;;;;;4.20;3.90;;;;;;;13.91;90.30;95152.06;5034388;28;20234;-88
2022/09/25 06:43:59;;;;;;;5.70;4.80;;;;;;;13.86;91.20;95152.69;5034687;28;20256;-88
2022/09/25 06:46:25;;;;;;;5.32;4.82;;;;;;;13.90;91.47;95153.88;5034069;28;20249;-88
2022/09/25 06:48:57;;;;;;;5.07;4.53;;;;;;;13.86;91.89;95150.09;5034085;28;20210;-89
2022/09/25 06:51:26;;;;;;;5.00;4.60;;;;;;;13.85;93.42;95151.13;5034069;28;20245;-88
2022/09/25 06:53:56;;;;;;;4.78;4.38;;;;;;;13.94;91.97;95149.88;5034073;28;20261;-89
2022/09/25 06:56:23;;;;;;;4.95;4.45;;;;;;;14.03;91.04;95151.22;5033515;28;20284;-88
2022/09/25 06:58:49;;;;;;;5.38;4.97;;;;;;;14.08;90.83;95148.00;5033897;28;20202;-87
2022/09/25 07:01:17;;;;;;;6.15;4.57;;;;;;;14.17;90.58;95155.31;5033899;28;20252;-89
2022/09/25 07:03:46;;;;;;;5.57;4.50;;;;;;;14.22;90.97;95149.50;5039915;28;20563;-87
2022/09/25 07:06:15;;;;;;;4.80;4.38;;;;;;;14.29;90.34;95159.81;5052937;28;20309;-88
2022/09/25 07:08:42;;;;;;;5.00;4.55;;;;;;;14.34;90.42;95155.59;5053965;28;20208;-88
2022/09/25 07:11:12;;;;;;;4.90;4.50;;;;;;;14.43;90.30;95153.59;5053563;28;20244;-88
2022/09/25 07:13:39;;;;;;;5.35;4.85;;;;;;;14.50;89.94;95155.09;5054498;28;20197;-88
2022/09/25 07:16:07;;;;;;;5.25;4.78;;;;;;;14.57;90.22;95156.88;5053508;28;20318;-89
2022/09/25 07:18:35;;;;;;;5.10;4.70;;;;;;;14.62;89.70;95159.63;5053485;28;20201;-88
2022/09/25 07:21:04;;;;;;;5.10;4.70;;;;;;;14.65;89.87;95161.75;5053478;28;20389;-88
2022/09/25 07:23:32;;;;;;;5.10;4.70;;;;;;;14.67;90.63;95159.75;5041038;28;20602;-88
2022/09/25 07:26:04;;;;;;;5.28;4.88;;;;;;;14.67;92.90;95157.97;5032526;28;20230;-89
2022/09/25 07:28:30;;;;;;;5.50;5.10;;;;;;;14.73;91.83;95164.91;5033714;28;20209;-88
2022/09/25 07:30:57;;;;;;;5.80;5.30;;;;;;;14.74;92.82;95163.09;5032552;28;20575;-88
2022/09/25 07:33:24;;;;;;;5.47;5.07;;;;;;;14.80;92.15;95160.47;5034045;28;20260;-87
2022/09/25 07:35:52;;;;;;;5.53;5.03;;;;;;;14.88;92.09;95150.81;5033011;28;20289;-88
2022/09/25 07:38:18;;;;;;;5.93;5.43;;;;;;;14.85;93.91;95154.63;5032682;28;20313;-88
2022/09/25 07:40:45;;;;;;;6.47;5.97;;;;;;;14.80;95.82;95160.47;5032801;28;20321;-89
2022/09/25 07:43:11;;;;;;;7.07;6.47;;;;;;;14.76;96.62;95161.09;5033340;28;20194;-88
2022/09/25 07:45:38;;;;;;;7.50;6.80;;;;;;;14.72;97.95;95159.91;5032552;28;20244;-88
2022/09/25 07:48:05;;;;;;;6.97;6.38;;;;;;;14.74;97.14;95168.28;5033451;28;20301;-88
2022/09/25 07:50:32;;;;;;;7.13;6.45;;;;;;;14.85;94.83;95168.38;5032654;28;20217;-90
2022/09/25 07:53:00;;;;;;;6.93;6.32;;;;;;;14.87;93.34;95170.75;5033319;28;20204;-89
2022/09/25 07:55:27;;;;;;;7.13;6.50;;;;;;;14.93;92.55;95169.13;5032689;28;20226;-88
2022/09/25 07:57:56;;;;;;;7.20;6.60;;;;;;;14.97;93.17;95159.91;5033143;28;20765;-87
2022/09/25 08:00:27;;;;;;;7.30;6.60;;;;;;;14.98;93.56;95172.66;5032610;28;20740;-88
2022/09/25 08:02:58;;;;;;;7.65;6.90;;;;;;;15.01;93.63;95163.66;5033073;28;20206;-88
2022/09/25 08:05:25;;;;;;;7.45;6.85;;;;;;;15.02;93.69;95160.03;5022825;28;20233;-88
2022/09/25 08:07:55;;;;;;;7.57;6.93;;;;;;;14.96;93.46;95166.88;5031626;28;20209;-87
2022/09/25 08:10:23;;;;;;;7.40;6.80;;;;;;;14.93;93.98;95164.72;5031674;28;20228;-88
2022/09/25 08:12:49;;;;;;;7.63;6.93;;;;;;;14.95;93.37;95167.91;5032707;28;20202;-87
2022/09/25 08:15:19;;;;;;;7.63;7.00;;;;;;;14.99;90.79;95163.88;5031367;28;20245;-87
2022/09/25 08:17:45;;;;;;;7.65;7.05;;;;;;;14.99;89.84;95166.47;5032030;28;20288;-89
2022/09/25 08:20:12;;;;;;;7.40;6.88;;;;;;;14.95;89.72;95172.28;5031378;28;20237;-87
2022/09/25 08:22:38;;;;;;;7.70;7.07;;;;;;;15.01;90.57;95169.63;5037031;28;20622;-87
2022/09/25 08:25:19;;;;;;;8.48;7.55;;;;;;;15.05;89.48;95170.00;5050901;28;20217;-88
2022/09/25 08:27:47;;;;;;;8.32;7.70;;;;;;;15.08;89.47;95167.75;5051659;28;20204;-87
2022/09/25 08:30:14;;;;;;;8.32;7.55;;;;;;;15.09;89.47;95163.38;5050841;28;20236;-89
2022/09/25 08:32:41;;;;;;;9.02;8.32;;;;;;;15.08;89.66;95165.16;5051432;28;20201;-89
2022/09/25 08:35:13;;;;;;;8.23;7.63;;;;;;;15.08;89.67;95164.38;5050722;28;20224;-89
2022/09/25 08:37:41;;;;;;;9.45;8.43;;;;;;;15.02;90.77;95175.59;5051070;28;20312;-89
2022/09/25 08:40:17;;;;;;;10.60;9.30;;;;;;;15.02;90.22;95167.81;5051353;28;20232;-88
2022/09/25 08:42:54;;;;;;;9.95;9.05;;;;;;;14.98;89.99;95175.25;5051737;28;20249;-88
2022/09/25 08:51:05;;;;;;;10.45;9.50;;;;;;;14.76;91.10;95180.03;5051396;28;20220;-88
2022/09/25 08:53:36;;;;;;;10.90;10.00;;;;;;;14.72;92.83;95180.66;5051412;28;20205;-88
2022/09/25 08:56:19;;;;;;;11.13;10.10;;;;;;;14.77;91.21;95179.03;5051320;28;20709;-89
2022/09/25 08:58:53;;;;;;;10.95;10.05;;;;;;;14.79;91.57;95184.00;5051644;28;20228;-87
2022/09/25 09:01:24;;;;;;;11.25;10.25;;;;;;;14.80;90.86;95173.41;5051697;28;20745;-88
2022/09/25 09:03:57;;;;;;;10.52;9.63;;;;;;;14.89;90.27;95176.50;5044473;28;20208;-89
2022/09/25 09:06:26;;;;;;;10.18;9.38;;;;;;;14.95;89.95;95175.69;5031082;28;20234;-89
2022/09/25 09:08:58;;;;;;;11.07;9.98;;;;;;;14.98;89.92;95179.66;5031337;28;20209;-88
2022/09/25 09:11:36;;;;;;;11.57;10.50;;;;;;;14.96;89.90;95179.84;5032139;28;20275;-88
2022/09/25 09:14:06;;;;;;;11.90;10.70;;;;;;;14.90;90.36;95164.34;5031982;28;20201;-88
2022/09/25 09:16:41;;;;;;;12.25;11.15;;;;;;;14.93;90.20;95162.13;5031257;28;20226;-88
2022/09/25 09:19:10;;;;;;;12.15;11.05;;;;;;;14.94;90.84;95162.94;5032373;28;20208;-88
2022/09/25 09:21:55;;;;;;;12.15;11.07;;;;;;;14.94;91.64;95165.50;5032473;28;20829;-88
2022/09/25 09:24:31;;;;;;;12.85;11.75;;;;;;;14.92;90.63;95163.13;5052669;28;20194;-88
2022/09/25 09:27:13;;;;;;;12.93;11.73;;;;;;;14.97;90.50;95167.69;5053718;28;20279;-88
2022/09/25 09:29:52;;;;;;;12.52;11.38;;;;;;;14.97;90.81;95160.69;5050074;28;20229;-87
2022/09/25 09:32:32;;;;;;;14.02;12.63;;;;;;;14.94;91.13;95165.50;5049530;28;20681;-89
2022/09/25 09:35:12;;;;;;;14.20;12.90;;;;;;;15.00;91.14;95156.91;5049065;28;20205;-88
2022/09/25 09:37:55;;;;;;;13.52;12.20;;;;;;;15.00;91.75;95151.72;5049471;28;20210;-88
2022/09/25 09:40:32;;;;;;;13.82;12.55;;;;;;;15.16;90.01;95145.97;5075116;22;20227;-82
2022/09/25 09:43:05;;;;;;;13.77;12.40;;;;;;;15.36;88.52;95143.94;5096454;28;20663;-80
2022/09/25 09:45:44;;;;;;;13.70;12.40;;;;;;;15.38;87.37;95144.53;5099158;28;20224;-81
2022/09/25 09:48:18;;;;;;;14.05;12.75;;;;;;;15.39;87.15;95140.94;5100659;28;20234;-81
2022/09/25 09:50:49;;;;;;;13.43;12.23;;;;;;;15.37;87.03;95142.16;5099485;28;20220;-81
2022/09/25 09:53:27;;;;;;;13.65;12.07;;;;;;;15.33;87.93;95146.97;5099560;28;20199;-80
2022/09/25 09:55:59;;;;;;;14.10;12.88;;;;;;;15.42;88.16;95139.66;5098819;28;20641;-81
2022/09/25 09:58:31;;;;;;;13.63;12.35;;;;;;;15.51;86.95;95146.97;5098998;28;20200;-80
2022/09/25 10:01:00;;;;;;;13.20;11.90;;;;;;;15.62;87.09;95142.84;5099240;28;20224;-81
2022/09/25 10:03:29;;;;;;;13.18;11.63;;;;;;;15.65;86.72;95139.84;5095239;28;20188;-80
2022/09/25 10:05:58;;;;;;;13.40;12.20;;;;;;;15.56;87.45;95143.75;5078309;28;20525;-81
2022/09/25 10:08:25;;;;;;;12.32;11.23;;;;;;;15.72;87.39;95143.16;5077918;28;20644;-80
2022/09/25 10:10:53;;;;;;;13.32;12.02;;;;;;;15.93;86.71;95131.50;5078037;28;20213;-81
2022/09/25 10:13:22;;;;;;;12.43;11.32;;;;;;;16.11;85.78;95141.03;5077981;28;20204;-80
2022/09/25 10:15:54;;;;;;;11.68;10.57;;;;;;;16.30;83.98;95137.34;5078319;28;20270;-80
2022/09/25 10:18:30;;;;;;;11.68;10.68;;;;;;;16.41;82.36;95141.78;5078960;28;20200;-80
2022/09/25 10:20:59;;;;;;;11.57;10.55;;;;;;;16.53;82.06;95145.22;5078722;28;20235;-80
2022/09/25 10:23:38;;;;;;;11.02;10.02;;;;;;;16.50;81.84;95143.06;5090081;28;20192;-82
2022/09/25 10:26:23;;;;;;;11.52;10.45;;;;;;;16.59;81.20;95139.09;5098331;28;20323;-82
2022/09/25 10:28:49;;;;;;;11.45;10.45;;;;;;;16.65;81.05;95140.03;5097849;28;20200;-82
2022/09/25 10:31:19;;;;;;;10.82;9.93;;;;;;;16.82;79.39;95140.94;5098196;28;20643;-82
2022/09/25 10:34:00;;;;;;;11.27;10.27;;;;;;;16.86;79.82;95134.28;5098497;28;20200;-82
2022/09/25 10:36:33;;;;;;;10.38;9.52;;;;;;;16.92;80.88;95135.19;5097539;28;20249;-82
2022/09/25 10:39:00;;;;;;;10.93;10.02;;;;;;;16.98;82.13;95126.47;5098558;28;20261;-82
2022/09/25 10:41:27;;;;;;;10.25;9.23;;;;;;;17.06;80.11;95128.75;5097479;28;20223;-82
2022/09/25 10:43:55;;;;;;;9.55;8.68;;;;;;;17.20;78.34;95124.06;5098100;28;20200;-82
2022/09/25 10:52:05;;;;;;;8.98;8.27;;;;;;;17.19;75.30;95127.69;5098139;28;20203;-82
2022/09/25 10:54:32;;;;;;;7.70;7.10;;;;;;;17.39;74.69;95117.72;5097669;28;20200;-82
2022/09/25 10:56:58;;;;;;;7.55;6.88;;;;;;;17.34;73.69;95116.81;5097266;28;20273;-83
2022/09/25 10:59:25;;;;;;;6.18;5.68;;;;;;;17.27;73.70;95120.34;5097932;28;20199;-82
2022/09/25 11:01:53;;;;;;;6.13;5.63;;;;;;;17.30;72.35;95118.31;5097943;28;20231;-82
2022/09/25 11:04:26;;;;;;;6.43;5.93;;;;;;;17.17;72.77;95116.72;5085915;28;20200;-82
2022/09/25 11:07:21;;;;;;;6.45;5.88;;;;;;;17.22;72.70;95119.44;5077348;28;20267;-82
2022/09/25 11:10:06;;;;;;;7.07;6.47;;;;;;;17.32;71.58;95118.88;5079844;28;20291;-82
2022/09/25 11:12:35;;;;;;;6.90;6.30;;;;;;;17.30;72.86;95128.72;5067102;28;20209;-81
2022/09/25 11:15:44;;;;;;;6.57;6.00;;;;;;;17.24;72.47;95118.19;5064075;28;20664;-80
2022/09/25 11:18:35;;;;;;;6.97;6.28;;;;;;;17.21;74.90;95118.66;5073366;28;20211;-80
2022/09/25 11:21:05;;;;;;;6.78;6.25;;;;;;;17.26;73.20;95115.38;5077086;28;20316;-80
2022/09/25 11:23:47;;;;;;;6.40;5.90;;;;;;;17.23;72.80;95108.81;5089719;28;20269;-80
2022/09/25 11:26:33;;;;;;;6.32;5.72;;;;;;;17.23;73.76;95102.81;5098161;28;20224;-81
2022/09/25 11:29:26;;;;;;;6.68;6.07;;;;;;;17.29;73.13;95099.31;5098752;28;20675;-80
2022/09/25 11:31:58;;;;;;;6.32;5.82;;;;;;;17.29;74.20;95094.09;5097676;28;20226;-80
2022/09/25 11:34:39;;;;;;;6.82;6.22;;;;;;;17.24;74.54;95094.78;5096604;28;20184;-81
2022/09/25 11:37:19;;;;;;;6.20;5.70;;;;;;;17.33;75.19;95095.19;5091819;28;21027;-81
2022/09/25 11:42:41;;;;;;;4.38;3.92;;;;;;;17.54;72.35;95094.56;5091270;28;20254;-82
2022/09/25 11:45:16;;;;;;;5.80;5.30;;;;;;;17.69;74.10;95093.31;5087396;28;20741;-82
2022/09/25 11:47:53;;;;;;;8.25;4.50;;;;;;;17.95;72.04;95092.75;5078036;28;20204;-83
2022/09/25 11:50:24;;;;;;;7.18;5.38;;;;;;;18.30;71.15;95087.31;5081408;28;20484;-82
2022/09/25 11:53:03;;;;;;;6.80;6.20;;;;;;;18.35;70.30;95084.81;5077008;28;20197;-86
2022/09/25 11:55:51;;;;;;;7.05;6.45;;;;;;;18.48;69.76;95089.69;5077482;28;20220;-85
2022/09/25 11:58:36;;;;;;;7.50;6.90;;;;;;;18.48;69.89;95087.09;5079880;28;20224;-85
2022/09/25 12:01:12;;;;;;;7.20;6.60;;;;;;;18.54;71.24;95082.75;5079727;28;20999;-83